Time;durP1;ratioP1;P1;durP2;ratioP2;P2;SDS_P1;SDS_P2;PMS_P1;PMS_P2;Temp;Humidity;BMP_temperature;BMP_pressure;BME280_temperature;BME280_humidity;BME280_pressure;Samples;Min_cycle;Max_cycle;Signal;HPM_P1;HPM_P2
2021/12/05 00:23:15;;;;;;;1.10;1.00;;;;;;;1.83;100.00;94202.41;4990322;28;20058;-78
2021/12/05 00:25:45;;;;;;;2.28;1.27;;;;;;;1.80;100.00;94196.97;4993987;28;20168;-78
2021/12/05 00:55:31;;;;;;;3.20;1.25;;;;;;;1.55;100.00;94222.41;5000545;28;20062;-78
2021/12/05 00:58:28;;;;;;;2.78;1.33;;;;;;;1.59;100.00;94227.88;5006443;28;20048;-77
2021/12/05 01:04:03;;;;;;;4.72;1.52;;;;;;;1.49;100.00;94233.72;4990112;28;20046;-77
2021/12/05 01:16:45;;;;;;;5.10;1.40;;;;;;;1.48;100.00;94237.38;4998595;28;20046;-77
2021/12/05 01:19:13;;;;;;;3.00;1.30;;;;;;;1.45;100.00;94232.66;5002547;28;20139;-78
2021/12/05 01:21:40;;;;;;;3.15;1.20;;;;;;;1.43;100.00;94239.88;4997338;28;20071;-77
2021/12/05 01:24:33;;;;;;;1.48;1.10;;;;;;;1.54;100.00;94246.75;4974359;28;20045;-77
2021/12/05 01:35:02;;;;;;;1.73;1.23;;;;;;;1.38;100.00;94238.03;5004325;28;20045;-77
2021/12/05 01:58:47;;;;;;;2.10;0.90;;;;;;;1.24;100.00;94261.97;4984291;28;20644;-78
2021/12/05 02:41:21;;;;;;;1.83;1.20;;;;;;;1.58;100.00;94267.00;5011130;28;19932;-77
2021/12/05 02:43:55;;;;;;;1.77;1.13;;;;;;;1.53;100.00;94260.75;5004090;28;20065;-77
2021/12/05 02:46:23;;;;;;;2.95;1.20;;;;;;;1.46;100.00;94259.38;5008815;28;20046;-78
2021/12/05 02:48:49;;;;;;;2.00;1.00;;;;;;;1.39;100.00;94269.91;4992744;28;20072;-77
2021/12/05 02:51:26;;;;;;;3.70;1.20;;;;;;;1.55;100.00;94263.88;5001335;28;20121;-78
2021/12/05 02:54:16;;;;;;;4.47;1.13;;;;;;;1.61;100.00;94266.50;4986863;28;20042;-78
2021/12/05 02:56:43;;;;;;;2.55;1.20;;;;;;;1.51;100.00;94268.00;4997218;28;20540;-78
2021/12/05 03:02:10;;;;;;;1.90;1.17;;;;;;;1.56;100.00;94265.44;4986460;28;20042;-78
2021/12/05 03:04:39;;;;;;;1.67;1.10;;;;;;;1.55;100.00;94263.88;5000738;28;20050;-78
2021/12/05 03:07:07;;;;;;;3.08;1.50;;;;;;;1.54;100.00;94254.53;5002659;28;20296;-77
2021/12/05 03:09:34;;;;;;;2.55;1.33;;;;;;;1.61;100.00;94271.72;4993503;28;20039;-77
2021/12/05 03:12:01;;;;;;;3.38;1.50;;;;;;;1.50;100.00;94281.97;4980828;28;20042;-79
2021/12/05 03:14:26;;;;;;;1.85;1.38;;;;;;;1.50;100.00;94281.97;5011110;28;20092;-77
2021/12/05 03:16:52;;;;;;;2.53;1.40;;;;;;;1.41;100.00;94288.63;5001438;28;20042;-77
2021/12/05 03:19:19;;;;;;;2.22;1.38;;;;;;;1.25;100.00;94284.25;4999837;28;20116;-77
2021/12/05 03:21:47;;;;;;;2.00;1.30;;;;;;;1.36;100.00;94291.13;4991256;28;20508;-77
2021/12/05 03:24:13;;;;;;;3.28;1.27;;;;;;;1.39;100.00;94298.44;4994872;28;20109;-77
2021/12/05 03:26:42;;;;;;;4.43;1.70;;;;;;;1.34;100.00;94293.19;4998050;28;20701;-78
2021/12/05 03:29:11;;;;;;;1.60;1.15;;;;;;;1.30;100.00;94297.28;5009380;28;20041;-78
2021/12/05 03:31:38;;;;;;;5.32;1.40;;;;;;;1.15;100.00;94290.91;5008259;28;20085;-77
2021/12/05 03:34:06;;;;;;;3.38;1.30;;;;;;;1.17;100.00;94295.84;4980591;28;20509;-78
2021/12/05 03:36:34;;;;;;;3.13;1.17;;;;;;;1.19;100.00;94293.78;4999040;28;20038;-77
2021/12/05 03:39:03;;;;;;;2.20;1.05;;;;;;;1.18;100.00;94300.00;5004688;28;20053;-77
2021/12/05 03:41:29;;;;;;;3.00;1.30;;;;;;;1.23;100.00;94309.66;4991979;28;20057;-77
2021/12/05 03:43:56;;;;;;;3.42;0.90;;;;;;;1.06;99.28;94297.50;4993985;28;20052;-77
2021/12/05 03:46:23;;;;;;;2.95;0.90;;;;;;;1.13;99.08;94305.88;4993992;28;20046;-78
2021/12/05 03:48:53;;;;;;;1.50;1.05;;;;;;;0.97;100.00;94294.53;5002163;28;20054;-77
2021/12/05 03:51:20;;;;;;;3.42;1.05;;;;;;;1.12;100.00;94306.91;4991184;28;20574;-77
2021/12/05 03:53:46;;;;;;;2.30;0.73;;;;;;;1.04;100.00;94304.72;4991575;28;20077;-78
2021/12/05 03:56:14;;;;;;;8.77;1.38;;;;;;;0.98;98.31;94300.50;4997799;28;20065;-77
2021/12/05 03:58:40;;;;;;;23.50;0.98;;;;;;;1.03;97.23;94300.56;4989471;28;20046;-77
2021/12/05 04:01:08;;;;;;;4.45;0.88;;;;;;;0.86;97.92;94298.81;4991579;28;20057;-77
2021/12/05 04:03:35;;;;;;;2.17;0.73;;;;;;;0.96;96.09;94297.38;4998963;28;20093;-78
2021/12/05 04:06:01;;;;;;;2.35;0.57;;;;;;;0.90;96.58;94293.16;5001895;28;20057;-78
2021/12/05 04:08:29;;;;;;;1.52;0.80;;;;;;;0.85;97.07;94286.88;5001223;28;20041;-78
2021/12/05 04:11:04;;;;;;;2.40;0.77;;;;;;;0.66;99.43;94291.53;4977689;28;20042;-78
2021/12/05 04:13:31;;;;;;;1.95;0.77;;;;;;;0.67;98.09;94285.31;5008495;28;20071;-78
2021/12/05 04:16:00;;;;;;;2.65;0.85;;;;;;;0.79;95.99;94284.44;5010455;28;20045;-77
2021/12/05 04:18:26;;;;;;;3.63;0.93;;;;;;;0.75;96.76;94276.38;5005806;28;20046;-78
2021/12/05 04:20:51;;;;;;;3.08;1.15;;;;;;;0.68;97.72;94275.75;5003946;28;20086;-78
2021/12/05 04:23:17;;;;;;;4.85;1.77;;;;;;;0.65;96.63;94271.03;5004933;28;20053;-78
2021/12/05 04:25:47;;;;;;;3.08;0.95;;;;;;;0.71;96.69;94275.28;4991639;28;20046;-78
2021/12/05 04:28:15;;;;;;;1.35;0.82;;;;;;;0.74;97.10;94274.78;4991861;28;20042;-79
2021/12/05 04:30:41;;;;;;;4.30;1.08;;;;;;;0.62;97.03;94271.53;5007649;28;20042;-78
2021/12/05 04:33:07;;;;;;;1.55;0.80;;;;;;;0.65;97.55;94271.03;4992130;28;20088;-78
2021/12/05 04:35:33;;;;;;;6.68;1.20;;;;;;;0.65;97.52;94271.03;4998674;28;20038;-77
2021/12/05 04:37:59;;;;;;;1.83;1.20;;;;;;;0.62;98.39;94261.16;4990542;28;20049;-78
2021/12/05 04:40:24;;;;;;;3.80;1.00;;;;;;;0.63;98.79;94257.53;5009236;28;20056;-77
2021/12/05 04:42:50;;;;;;;2.20;1.20;;;;;;;0.52;100.00;94261.81;4999000;28;20835;-78
2021/12/05 04:45:25;;;;;;;3.83;1.30;;;;;;;0.52;100.00;94267.75;5001424;28;20052;-77
2021/12/05 04:47:50;;;;;;;;;;;;;;;0.63;99.78;94267.91;4991126;28;20042;-78
2021/12/05 04:50:17;;;;;;;3.95;1.40;;;;;;;0.57;100.00;94269.63;5008026;28;19921;-77
2021/12/05 04:52:43;;;;;;;4.40;1.30;;;;;;;0.63;100.00;94267.91;4984643;28;20042;-78
2021/12/05 04:55:10;;;;;;;6.00;1.55;;;;;;;0.61;100.00;94262.19;5003684;28;20050;-77
2021/12/05 04:57:36;;;;;;;2.92;1.30;;;;;;;0.60;100.00;94260.59;4991596;28;20050;-77
2021/12/05 05:00:06;;;;;;;4.15;1.70;;;;;;;0.60;100.00;94258.78;4989005;28;20054;-77
2021/12/05 05:02:32;;;;;;;1.40;1.27;;;;;;;0.67;100.00;94269.00;4990790;28;20050;-78
2021/12/05 05:04:57;;;;;;;5.60;1.30;;;;;;;0.64;100.00;94262.47;4980183;28;20412;-78
2021/12/05 05:07:26;;;;;;;4.53;1.38;;;;;;;0.64;100.00;94259.13;4993004;28;20046;-77
2021/12/05 05:10:03;;;;;;;3.97;1.20;;;;;;;0.60;100.00;94263.97;4990972;28;20125;-77
2021/12/05 05:12:28;;;;;;;4.03;1.65;;;;;;;0.64;100.00;94259.13;4980247;28;20057;-77
2021/12/05 05:14:55;;;;;;;4.82;1.90;;;;;;;0.61;100.00;94260.38;4989165;28;20042;-77
2021/12/05 05:17:21;;;;;;;5.18;1.45;;;;;;;0.63;100.00;94262.72;4994659;28;20068;-79
2021/12/05 05:19:51;;;;;;;3.75;1.73;;;;;;;0.56;100.00;94257.72;4991653;28;20049;-79
2021/12/05 05:46:18;;;;;;;4.97;1.30;;;;;;;0.39;100.00;94268.09;5025428;28;20533;-78
2021/12/05 05:48:57;;;;;;;4.35;2.15;;;;;;;0.39;100.00;94267.28;5005652;28;20052;-78
2021/12/05 05:51:23;;;;;;;8.15;2.20;;;;;;;0.36;100.00;94272.94;5000669;28;20045;-78
2021/12/05 05:53:49;;;;;;;3.60;1.20;;;;;;;0.38;100.00;94266.50;5004654;28;20068;-78
2021/12/05 05:56:19;;;;;;;2.63;1.15;;;;;;;0.37;100.00;94259.75;5009359;28;20050;-78
2021/12/05 05:58:53;;;;;;;4.20;1.55;;;;;;;0.34;100.00;94265.41;5017319;28;20460;-78
2021/12/05 06:01:59;;;;;;;10.30;1.30;;;;;;;0.33;100.00;94263.81;5014384;28;20052;-78
2021/12/05 06:04:06;;;;;;;3.85;1.30;;;;;;;0.22;100.00;94251.78;5003642;28;20062;-78
2021/12/05 06:06:32;;;;;;;3.92;1.40;;;;;;;0.32;100.00;94263.06;4984093;28;20508;-78
2021/12/05 06:08:59;;;;;;;4.72;1.20;;;;;;;0.34;100.00;94270.56;5006670;28;20089;-78
2021/12/05 06:11:25;;;;;;;2.25;1.35;;;;;;;0.33;100.00;94269.00;5009174;28;20124;-78
2021/12/05 06:13:52;;;;;;;5.57;1.25;;;;;;;0.36;100.00;94278.91;5006289;28;20096;-77
2021/12/05 06:16:19;;;;;;;2.95;1.25;;;;;;;0.33;100.00;94274.19;5011981;28;20052;-78
2021/12/05 06:18:45;;;;;;;3.65;1.48;;;;;;;0.36;100.00;94276.31;5008143;28;20122;-78
2021/12/05 06:21:12;;;;;;;1.45;1.10;;;;;;;0.39;100.00;94278.44;5015557;28;20770;-78
2021/12/05 06:23:39;;;;;;;4.72;1.30;;;;;;;0.41;100.00;94281.56;5021568;28;20041;-78
2021/12/05 06:26:08;;;;;;;5.40;1.40;;;;;;;0.33;100.00;94279.34;4980834;28;20137;-77
2021/12/05 06:28:46;;;;;;;2.47;1.10;;;;;;;0.39;100.00;94277.63;5003556;28;20041;-78
2021/12/05 06:31:25;;;;;;;8.40;1.48;;;;;;;0.40;100.00;94289.56;5033086;28;20095;-77
2021/12/05 06:47:14;;;;;;;4.85;1.33;;;;;;;0.36;100.00;94299.63;5019692;28;20050;-78
2021/12/05 06:49:43;;;;;;;3.72;1.75;;;;;;;0.40;100.00;94295.50;5015672;28;20052;-78
2021/12/05 06:52:09;;;;;;;4.22;1.40;;;;;;;0.40;100.00;94294.72;5014788;28;20475;-78
2021/12/05 06:54:37;;;;;;;4.50;1.55;;;;;;;0.39;100.00;94293.97;5014423;28;20065;-78
2021/12/05 06:57:04;;;;;;;5.47;1.60;;;;;;;0.36;100.00;94299.63;5014481;28;20037;-78
2021/12/05 06:59:29;;;;;;;3.38;1.52;;;;;;;0.34;100.00;94304.22;5003682;28;20436;-78
2021/12/05 07:01:55;;;;;;;2.10;1.30;;;;;;;0.36;100.00;94309.16;5006751;28;20072;-78
2021/12/05 07:04:45;;;;;;;3.85;1.42;;;;;;;0.38;100.00;94302.75;5016144;28;20459;-78
2021/12/05 07:07:12;;;;;;;3.60;1.40;;;;;;;0.39;100.00;94314.66;5018098;28;20362;-78
2021/12/05 07:09:39;;;;;;;5.43;1.60;;;;;;;0.41;100.00;94312.63;5014498;28;20042;-78
2021/12/05 07:14:54;;;;;;;3.08;1.60;;;;;;;0.34;100.00;94299.03;5013622;28;20674;-78
2021/12/05 07:20:22;;;;;;;6.68;1.70;;;;;;;0.36;100.00;94299.63;5020179;28;20125;-77
2021/12/05 07:23:12;;;;;;;3.67;1.50;;;;;;;0.32;100.00;94298.50;5021191;28;20052;-78
2021/12/05 07:25:53;;;;;;;4.13;1.38;;;;;;;0.33;100.00;94289.69;5005250;28;20579;-78
2021/12/05 07:42:10;;;;;;;2.00;1.40;;;;;;;0.67;100.00;94274.16;5023622;28;20052;-78
2021/12/05 07:44:35;;;;;;;1.85;1.15;;;;;;;0.69;100.00;94272.16;5014273;28;20100;-78
2021/12/05 07:47:01;;;;;;;7.18;1.75;;;;;;;0.75;100.00;94271.19;4979614;28;20034;-78
2021/12/05 07:49:27;;;;;;;5.22;1.33;;;;;;;0.77;100.00;94279.50;5029155;28;20038;-77
2021/12/05 07:51:53;;;;;;;2.15;1.48;;;;;;;0.80;100.00;94273.84;5025268;28;20045;-78
2021/12/05 07:54:44;;;;;;;2.47;1.30;;;;;;;0.86;99.69;94277.28;5014999;28;20496;-78
2021/12/05 07:57:19;;;;;;;2.42;1.40;;;;;;;0.84;99.71;94280.09;5014337;28;20046;-78
2021/12/05 08:16:16;;;;;;;2.67;1.23;;;;;;;1.02;99.49;94286.03;5027280;28;20076;-78
2021/12/05 08:18:41;;;;;;;3.10;1.58;;;;;;;1.02;100.00;94275.66;5022044;28;20042;-78
2021/12/05 08:21:08;;;;;;;5.78;1.85;;;;;;;1.10;99.52;94280.44;5019836;28;20042;-78
2021/12/05 08:23:34;;;;;;;4.53;1.58;;;;;;;1.11;98.58;94271.66;5014703;28;20072;-79
2021/12/05 08:26:08;;;;;;;2.90;1.40;;;;;;;1.09;99.25;94271.09;4995003;28;20049;-77
2021/12/05 08:34:00;;;;;;;2.83;1.30;;;;;;;1.11;98.16;94274.25;5014033;28;20088;-78
2021/12/05 09:20:17;;;;;;;3.50;1.27;;;;;;;1.56;96.33;94296.56;5015752;28;20064;-78
2021/12/05 09:26:25;;;;;;;12.60;4.57;;;;;;;1.79;97.34;94310.28;5007672;28;20493;-77
2021/12/05 09:31:20;;;;;;;7.50;2.70;;;;;;;1.87;95.30;94302.09;4996590;28;20042;-78
2021/12/05 10:06:54;;;;;;;1.95;1.10;;;;;;;2.12;95.07;94282.59;5007279;28;20038;-77
2021/12/05 10:14:31;;;;;;;7.05;2.03;;;;;;;2.16;92.50;94282.91;5007953;28;20118;-77
2021/12/05 10:34:02;;;;;;;4.05;1.20;;;;;;;2.53;89.30;94277.75;4997727;28;20045;-76
2021/12/05 10:36:28;;;;;;;9.70;2.17;;;;;;;2.32;89.80;94276.03;5006728;28;20084;-77
2021/12/05 10:38:59;;;;;;;4.07;1.45;;;;;;;2.45;88.93;94285.97;4994943;28;20038;-77
2021/12/05 10:44:06;;;;;;;3.75;1.30;;;;;;;2.49;90.67;94276.66;5009172;28;20057;-76
2021/12/05 10:46:33;;;;;;;6.45;1.63;;;;;;;2.56;89.27;94274.66;4983067;28;20100;-77
2021/12/05 10:49:03;;;;;;;3.17;1.40;;;;;;;2.64;88.28;94273.38;5004827;28;20042;-77
2021/12/05 10:51:38;;;;;;;4.45;1.70;;;;;;;2.74;89.16;94273.47;5003798;28;20066;-77
2021/12/05 10:54:09;;;;;;;5.80;2.17;;;;;;;2.76;87.94;94270.63;5007625;28;20073;-75
2021/12/05 10:56:38;;;;;;;4.75;2.13;;;;;;;2.64;87.14;94268.19;5001718;28;20030;-75
2021/12/05 10:59:10;;;;;;;7.90;2.15;;;;;;;2.62;89.10;94269.50;4989268;28;20124;-74
2021/12/05 11:01:49;;;;;;;3.00;1.40;;;;;;;2.69;87.32;94270.06;5005447;28;20045;-77
2021/12/05 11:04:15;;;;;;;5.00;1.40;;;;;;;2.60;91.03;94262.72;5008656;28;20392;-77
2021/12/05 11:06:41;;;;;;;3.03;1.50;;;;;;;2.55;88.60;94270.47;4992472;28;20073;-77
2021/12/05 11:09:16;;;;;;;5.63;1.65;;;;;;;2.97;85.97;94273.34;4988105;28;20423;-77
2021/12/05 11:11:46;;;;;;;7.15;1.80;;;;;;;2.81;90.48;94268.06;4993019;28;20046;-77
2021/12/05 11:14:15;;;;;;;4.03;1.27;;;;;;;2.98;85.31;94267.13;4993139;28;20046;-77
2021/12/05 11:16:43;;;;;;;5.72;2.00;;;;;;;2.82;87.16;94264.44;5005142;28;20050;-77
2021/12/05 11:19:12;;;;;;;3.95;1.58;;;;;;;2.81;84.64;94267.28;5009825;28;20052;-77
2021/12/05 11:21:46;;;;;;;6.25;1.30;;;;;;;2.71;90.21;94262.78;5009589;28;20049;-77
2021/12/05 11:24:28;;;;;;;9.55;2.22;;;;;;;2.55;86.52;94265.28;5009636;28;20052;-77
2021/12/05 11:27:20;;;;;;;7.40;2.58;;;;;;;2.54;88.76;94274.13;5010206;28;20041;-77
2021/12/05 11:29:51;;;;;;;8.82;3.33;;;;;;;2.67;86.53;94272.13;5007876;28;20057;-77
2021/12/05 11:32:22;;;;;;;3.38;1.70;;;;;;;2.65;86.26;94269.00;5007979;28;20062;-77
2021/12/05 11:34:48;;;;;;;6.47;2.25;;;;;;;2.52;89.35;94273.56;5006433;28;20041;-78
2021/12/05 11:37:14;;;;;;;7.10;3.38;;;;;;;2.60;87.78;94273.13;4992956;28;20518;-77
2021/12/05 11:39:40;;;;;;;6.00;2.45;;;;;;;3.01;85.38;94266.63;5009642;28;20037;-77
2021/12/05 11:42:14;;;;;;;5.03;2.58;;;;;;;2.82;86.82;94272.22;5009734;28;20498;-77
2021/12/05 11:44:41;;;;;;;;;;;;;;;2.68;89.04;94268.50;5009529;28;20056;-77
2021/12/05 11:47:18;;;;;;;7.80;1.98;;;;;;;2.67;87.39;94272.13;5004469;28;19925;-77
2021/12/05 11:49:44;;;;;;;8.48;2.08;;;;;;;2.81;85.26;94268.06;5008623;28;20042;-77
2021/12/05 11:52:09;;;;;;;9.35;1.77;;;;;;;2.97;83.93;94275.94;5007471;28;20096;-77
2021/12/05 11:54:46;;;;;;;4.47;1.83;;;;;;;2.71;87.01;94265.38;4996552;28;20046;-77
2021/12/05 11:57:30;;;;;;;7.40;2.08;;;;;;;2.70;86.54;94263.81;4990774;28;20752;-77
2021/12/05 12:00:01;;;;;;;12.75;5.72;;;;;;;2.55;86.80;94260.09;4990914;28;20058;-77
2021/12/05 12:02:40;;;;;;;10.85;3.25;;;;;;;2.59;90.61;94255.19;5006189;28;20459;-77
2021/12/05 12:05:28;;;;;;;5.75;1.60;;;;;;;2.62;85.46;94259.09;5006903;28;20774;-77
2021/12/05 12:07:54;;;;;;;6.05;2.47;;;;;;;2.89;82.46;94265.00;5003037;28;20589;-77
2021/12/05 12:10:25;;;;;;;4.20;1.60;;;;;;;2.98;82.12;94267.88;4998366;28;20109;-81
2021/12/05 12:13:06;;;;;;;4.25;1.55;;;;;;;3.01;82.56;94261.41;4995121;28;20045;-77
2021/12/05 12:15:34;;;;;;;4.78;1.63;;;;;;;2.94;81.37;94262.44;5009498;28;20045;-78
2021/12/05 12:18:09;;;;;;;4.35;1.65;;;;;;;2.87;82.20;94261.84;5009575;28;20080;-77
2021/12/05 12:20:37;;;;;;;7.50;3.17;;;;;;;2.74;86.77;94257.09;4980827;28;20050;-77
2021/12/05 12:23:03;;;;;;;7.50;2.70;;;;;;;2.63;84.46;94255.47;5010446;28;20100;-77
2021/12/05 12:25:33;;;;;;;5.68;2.40;;;;;;;2.59;83.41;94258.56;5003064;28;20782;-77
2021/12/05 12:27:58;;;;;;;3.92;1.10;;;;;;;2.47;83.36;94257.97;5012144;28;20691;-77
2021/12/05 12:30:27;;;;;;;4.60;1.55;;;;;;;2.46;84.06;94261.59;4994831;28;20120;-79
2021/12/05 12:32:59;;;;;;;6.57;1.77;;;;;;;2.52;84.61;94254.63;4993236;28;20434;-76
2021/12/05 12:35:29;;;;;;;2.08;1.33;;;;;;;2.47;81.85;94263.16;5012090;28;20045;-76
2021/12/05 12:38:16;;;;;;;4.38;1.67;;;;;;;2.56;85.21;94261.66;4998298;28;20049;-76
2021/12/05 12:41:02;;;;;;;5.80;1.90;;;;;;;2.43;82.88;94256.91;4996038;28;20058;-77
2021/12/05 12:43:36;;;;;;;8.80;2.20;;;;;;;2.56;84.32;94251.28;4981795;28;20046;-76
2021/12/05 12:46:33;;;;;;;5.65;1.75;;;;;;;2.85;82.54;94258.72;5001976;28;20041;-77
2021/12/05 12:49:16;;;;;;;5.00;1.73;;;;;;;2.71;83.40;94247.22;5009459;28;20045;-77
2021/12/05 12:51:47;;;;;;;5.85;1.85;;;;;;;2.57;83.73;94259.84;4993210;28;20108;-77
2021/12/05 12:54:23;;;;;;;4.30;1.95;;;;;;;2.60;83.95;94252.34;5007282;28;20049;-77
2021/12/05 12:57:19;;;;;;;6.90;1.70;;;;;;;2.55;84.23;94254.88;5004918;28;20033;-78
2021/12/05 12:59:55;;;;;;;3.30;1.30;;;;;;;2.97;80.38;94255.94;5011561;28;20041;-77
2021/12/05 13:02:38;;;;;;;2.15;1.13;;;;;;;2.93;82.11;94260.84;5010607;28;20165;-80
2021/12/05 13:05:34;;;;;;;3.78;1.45;;;;;;;2.97;82.59;94255.94;4992238;28;20108;-77
2021/12/05 13:11:23;;;;;;;6.80;1.25;;;;;;;2.82;82.48;94248.84;5004216;28;20084;-78
2021/12/05 13:14:01;;;;;;;3.75;1.40;;;;;;;2.82;80.99;94259.22;4996548;28;20038;-79
2021/12/05 13:16:31;;;;;;;2.67;1.00;;;;;;;2.75;82.77;94253.47;4987735;28;20038;-78
2021/12/05 13:19:07;;;;;;;4.70;1.50;;;;;;;2.72;82.92;94248.78;4991814;28;20041;-77
2021/12/05 13:21:38;;;;;;;5.78;1.23;;;;;;;2.64;83.19;94252.59;5006201;28;20042;-76
2021/12/05 13:24:16;;;;;;;5.28;2.13;;;;;;;2.65;83.19;94248.22;4992707;28;20033;-78
2021/12/05 13:26:42;;;;;;;4.00;1.50;;;;;;;2.69;80.31;94251.88;5010795;28;20041;-79
2021/12/05 13:29:25;;;;;;;5.55;1.42;;;;;;;2.72;81.18;94248.78;5009008;28;20045;-77
2021/12/05 13:31:56;;;;;;;6.97;1.63;;;;;;;2.68;82.78;94250.31;5009678;28;20037;-77
2021/12/05 13:34:34;;;;;;;4.07;1.25;;;;;;;2.67;83.29;94252.13;5004610;28;20046;-78
2021/12/05 13:37:21;;;;;;;3.22;1.20;;;;;;;2.73;82.63;94260.72;5005749;28;20751;-78
2021/12/05 13:39:52;;;;;;;6.45;1.55;;;;;;;2.74;81.62;94257.09;5000478;28;20050;-78
2021/12/05 13:42:21;;;;;;;2.35;1.20;;;;;;;2.72;81.34;94259.16;5011702;28;20210;-79
2021/12/05 13:44:58;;;;;;;1.85;1.02;;;;;;;2.69;81.62;94262.28;5009820;28;20056;-78
2021/12/05 13:47:38;;;;;;;3.42;1.33;;;;;;;2.72;81.57;94264.38;5011123;28;20042;-78
2021/12/05 13:50:18;;;;;;;4.45;1.45;;;;;;;2.68;81.83;94263.28;5011932;28;20042;-80
2021/12/05 13:52:45;;;;;;;3.75;1.25;;;;;;;2.66;81.57;94273.13;5000019;28;20050;-80
2021/12/05 13:55:49;;;;;;;5.97;1.80;;;;;;;2.60;83.40;94267.13;5010329;28;20046;-78
2021/12/05 13:58:20;;;;;;;6.20;1.90;;;;;;;2.65;82.79;94263.81;5004722;28;20042;-79
2021/12/05 14:01:16;;;;;;;5.60;1.92;;;;;;;2.66;82.34;94267.94;5010805;28;20065;-80
2021/12/05 14:03:53;;;;;;;5.05;1.80;;;;;;;2.62;82.68;94272.09;4993475;28;20170;-84
2021/12/05 14:06:36;;;;;;;4.05;2.10;;;;;;;2.64;83.01;94278.59;5010682;28;20478;-80
2021/12/05 14:09:06;;;;;;;8.65;4.28;;;;;;;2.62;83.48;94272.09;4992624;28;20046;-79
2021/12/05 14:11:32;;;;;;;8.20;2.67;;;;;;;2.63;84.54;94271.03;5006617;28;20054;-79
2021/12/05 14:14:01;;;;;;;9.88;4.97;;;;;;;2.64;85.01;94264.81;4997374;28;20038;-78
2021/12/05 14:16:36;;;;;;;10.25;3.45;;;;;;;2.70;84.25;94272.41;5008507;28;20065;-78
2021/12/05 14:19:04;;;;;;;4.78;1.60;;;;;;;2.71;84.13;94273.19;5014766;28;20092;-78
2021/12/05 14:21:30;;;;;;;4.07;1.70;;;;;;;2.68;83.38;94279.66;5004941;28;20050;-79
2021/12/05 14:23:58;;;;;;;4.05;1.70;;;;;;;2.63;84.84;94277.03;5011389;28;20045;-78
2021/12/05 14:26:27;;;;;;;6.47;1.63;;;;;;;2.54;83.42;94287.09;5023846;28;20827;-79
2021/12/05 14:29:12;;;;;;;2.47;1.52;;;;;;;2.52;85.95;94273.56;5017601;28;20031;-78
2021/12/05 14:31:49;;;;;;;4.25;1.42;;;;;;;2.50;84.08;94273.06;5025523;28;20046;-79
2021/12/05 14:34:16;;;;;;;3.10;1.60;;;;;;;2.46;85.60;94279.78;5013431;28;20042;-79
2021/12/05 14:36:46;;;;;;;3.97;1.40;;;;;;;2.43;84.84;94285.47;5000604;28;20042;-79
2021/12/05 14:39:20;;;;;;;6.32;1.80;;;;;;;2.38;86.39;94290.59;4994436;28;20038;-77
2021/12/05 14:41:48;;;;;;;;;;;;;;;2.34;85.60;94294.72;4984548;28;20049;-77
2021/12/05 14:44:15;;;;;;;3.03;1.35;;;;;;;2.30;87.66;94288.44;5005531;28;19922;-77
2021/12/05 14:47:21;;;;;;;6.60;2.00;;;;;;;2.25;88.45;94292.56;4993484;28;20045;-75
2021/12/05 14:49:56;;;;;;;4.75;1.70;;;;;;;2.27;89.41;94291.53;4994886;28;20058;-75
2021/12/05 14:52:28;;;;;;;5.03;1.60;;;;;;;1.84;94.91;94292.19;4997425;28;20053;-78
2021/12/05 14:54:55;;;;;;;3.58;1.60;;;;;;;2.02;93.95;94292.88;4999836;28;20041;-77
2021/12/05 14:57:25;;;;;;;3.53;1.65;;;;;;;1.93;94.70;94307.34;5021805;28;20125;-77
2021/12/05 14:59:57;;;;;;;6.78;2.08;;;;;;;1.95;95.19;94302.66;5011648;28;20121;-76
2021/12/05 15:02:24;;;;;;;4.18;2.00;;;;;;;1.85;96.60;94309.34;5008193;28;20054;-77
2021/12/05 15:04:52;;;;;;;5.03;2.15;;;;;;;1.79;96.70;94315.47;5010486;28;20171;-77
2021/12/05 15:07:20;;;;;;;5.53;2.50;;;;;;;1.66;97.99;94310.66;5004518;28;20579;-77
2021/12/05 15:09:49;;;;;;;7.95;2.35;;;;;;;1.65;99.21;94309.91;4994317;28;20089;-76
2021/12/05 15:12:29;;;;;;;7.57;2.38;;;;;;;1.72;98.63;94315.69;4993440;28;20690;-77
2021/12/05 15:14:58;;;;;;;8.60;2.38;;;;;;;1.60;99.78;94311.66;5009204;28;20053;-76
2021/12/05 15:17:36;;;;;;;5.80;2.08;;;;;;;1.54;99.54;94314.16;5010759;28;20052;-76
2021/12/05 15:20:10;;;;;;;7.60;2.50;;;;;;;1.55;99.37;94326.13;5009738;28;20045;-75
2021/12/05 15:22:36;;;;;;;7.38;2.45;;;;;;;1.52;99.49;94326.59;5010875;28;20049;-77
2021/12/05 15:25:06;;;;;;;5.68;2.20;;;;;;;1.48;99.74;94322.94;5004355;28;20045;-77
2021/12/05 15:27:34;;;;;;;8.77;2.65;;;;;;;1.45;99.89;94336.38;5009029;28;20046;-77
2021/12/05 15:30:19;;;;;;;9.63;2.80;;;;;;;1.39;99.85;94326.94;5008363;28;20117;-77
2021/12/05 15:32:49;;;;;;;6.90;2.78;;;;;;;1.31;100.00;94341.13;5000295;28;20042;-77
2021/12/05 15:35:17;;;;;;;7.85;2.83;;;;;;;1.29;100.00;94337.19;4987879;28;20050;-78
2021/12/05 15:37:47;;;;;;;15.95;4.20;;;;;;;1.18;100.00;94337.06;5003036;28;20038;-79
2021/12/05 15:40:13;;;;;;;24.08;6.32;;;;;;;1.17;100.00;94345.06;5007920;28;20046;-77
2021/12/05 15:42:38;;;;;;;13.50;3.45;;;;;;;1.07;100.00;94353.47;5004996;28;20049;-77
2021/12/05 15:45:08;;;;;;;8.38;2.42;;;;;;;0.96;100.00;94351.75;4991724;28;20087;-77
2021/12/05 15:47:36;;;;;;;7.03;2.30;;;;;;;0.89;100.00;94353.72;4994713;28;20045;-77
2021/12/05 15:50:11;;;;;;;5.15;2.03;;;;;;;0.97;100.00;94356.72;5009189;28;20057;-79
2021/12/05 15:52:36;;;;;;;7.28;2.13;;;;;;;1.03;100.00;94358.38;5002294;28;20411;-76
2021/12/05 15:55:07;;;;;;;6.68;2.45;;;;;;;1.16;100.00;94353.84;5004295;28;20038;-77
2021/12/05 15:57:37;;;;;;;8.55;2.25;;;;;;;0.97;100.00;94366.28;5006973;28;20045;-78
2021/12/05 16:00:11;;;;;;;5.50;2.38;;;;;;;0.99;100.00;94359.84;5012976;28;20053;-78
2021/12/05 16:02:37;;;;;;;;;;;;;;;0.83;100.00;94366.63;5015793;28;20049;-80
2021/12/05 16:05:21;;;;;;;4.90;2.30;;;;;;;0.75;100.00;94366.22;5004279;28;20004;-77
2021/12/05 16:07:48;;;;;;;9.95;2.47;;;;;;;0.57;100.00;94375.00;5000250;28;20396;-78
2021/12/05 16:10:17;;;;;;;4.93;2.28;;;;;;;0.39;100.00;94376.78;5010959;28;20037;-78
2021/12/05 16:12:44;;;;;;;6.68;2.97;;;;;;;0.22;100.00;94375.97;5013612;28;20053;-79
2021/12/05 16:15:10;;;;;;;9.35;3.00;;;;;;;0.10;100.00;94383.75;4993831;28;20492;-76
2021/12/05 16:17:36;;;;;;;8.63;2.70;;;;;;;0.11;100.00;94378.34;4987509;28;20046;-77
2021/12/05 16:20:11;;;;;;;10.55;3.15;;;;;;;-0.07;100.00;94383.69;4991813;28;20057;-78
2021/12/05 16:23:11;;;;;;;5.38;2.90;;;;;;;-0.10;100.00;94386.75;5007702;28;20794;-76
2021/12/05 16:25:44;;;;;;;6.13;2.92;;;;;;;-0.01;100.00;94382.81;5008374;28;20492;-77
2021/12/05 16:28:12;;;;;;;7.57;3.17;;;;;;;0.08;100.00;94386.56;4986166;28;20054;-77
2021/12/05 16:30:48;;;;;;;5.82;2.75;;;;;;;0.03;100.00;94386.50;5000007;28;20041;-77
2021/12/05 16:33:18;;;;;;;17.20;6.55;;;;;;;-0.06;100.00;94390.44;5005428;28;20042;-78
2021/12/05 16:35:49;;;;;;;15.55;4.15;;;;;;;-0.14;100.00;94393.38;5009103;28;20530;-78
2021/12/05 16:38:26;;;;;;;12.48;4.45;;;;;;;-0.13;100.00;94400.16;5006180;28;20530;-78
2021/12/05 16:41:06;;;;;;;10.40;4.30;;;;;;;0.10;100.00;94400.09;5004414;28;20052;-78
2021/12/05 16:43:34;;;;;;;6.85;3.80;;;;;;;0.34;100.00;94402.56;4988902;28;20363;-78
2021/12/05 16:46:16;;;;;;;9.57;3.72;;;;;;;0.36;100.00;94408.31;4986245;28;20045;-78
2021/12/05 16:48:43;;;;;;;7.90;4.22;;;;;;;0.26;100.00;94410.69;5006470;28;20045;-78
2021/12/05 16:51:14;;;;;;;16.90;6.03;;;;;;;0.11;100.00;94406.81;5007110;28;20137;-78
2021/12/05 16:53:45;;;;;;;8.88;3.90;;;;;;;0.08;100.00;94412.44;5003556;28;20380;-78
2021/12/05 16:56:14;;;;;;;6.50;3.40;;;;;;;0.01;100.00;94411.78;4979805;28;20046;-78
2021/12/05 16:58:42;;;;;;;7.35;3.53;;;;;;;-0.04;100.00;94402.16;4990107;28;20041;-77
2021/12/05 17:01:19;;;;;;;8.57;3.30;;;;;;;-0.11;100.00;94409.25;4986917;28;20068;-79
2021/12/05 17:03:46;;;;;;;6.20;2.92;;;;;;;-0.19;100.00;94418.16;4995504;28;20038;-80
2021/12/05 17:06:13;;;;;;;8.88;3.40;;;;;;;-0.20;100.00;94411.41;5003382;28;20053;-80
2021/12/05 17:08:44;;;;;;;11.05;3.70;;;;;;;-0.23;100.00;94404.13;4992929;28;20038;-78
2021/12/05 17:11:15;;;;;;;8.23;3.33;;;;;;;-0.54;100.00;94413.81;5011614;28;20049;-79
2021/12/05 17:13:48;;;;;;;8.23;3.50;;;;;;;-0.34;100.00;94417.84;5010493;28;20034;-79
2021/12/05 17:16:18;;;;;;;9.07;3.47;;;;;;;-0.32;100.00;94418.38;4978024;28;20107;-80
2021/12/05 17:18:57;;;;;;;7.25;3.28;;;;;;;-0.33;100.00;94419.44;5006660;28;20038;-79
2021/12/05 17:21:30;;;;;;;9.35;3.55;;;;;;;-0.42;100.00;94418.19;4983274;28;20043;-79